Aviation Digital Data Service (ADDS)

Output produced by METARs form (2053 UTC 23 January 2020)
found at http://aviationweather.gov/metar/data/
 
WADD 232030Z 04002KT 9999 FEW017 27/26 Q1009 NOSIG
WADD 232000Z VRB01KT 9999 FEW017 27/26 Q1009 NOSIG
WADD 231930Z VRB01KT 9999 FEW017 28/26 Q1009 NOSIG
WADD 231900Z VRB01KT 9999 FEW017 27/26 Q1009 NOSIG
WADD 231830Z 00000KT 9999 FEW017 27/26 Q1009 NOSIG
WADD 231800Z VRB01KT 9999 FEW017 28/26 Q1010 NOSIG
TAF WADD 231700Z 2318/2418 VRB05KT 9999 SCT016 
     BECMG 2400/2402 26010KT 
     TEMPO 2406/2410 FEW016CB SCT016